Time;durP1;ratioP1;P1;durP2;ratioP2;P2;SDS_P1;SDS_P2;PMS_P1;PMS_P2;Temp;Humidity;BMP_temperature;BMP_pressure;BME280_temperature;BME280_humidity;BME280_pressure;Samples;Min_cycle;Max_cycle;Signal;HPM_P1;HPM_P2
2023/09/03 00:05:56;;;;;;;12.98;10.70;;;11.60;99.90;;;;;;21006961;28;20078;-55
2023/09/03 00:15:58;;;;;;;16.65;12.00;;;11.50;99.90;;;;;;21044371;28;20408;-59
2023/09/03 00:26:01;;;;;;;19.30;10.98;;;11.60;99.90;;;;;;21021660;28;20032;-59
2023/09/03 00:36:05;;;;;;;15.10;10.55;;;11.80;99.90;;;;;;21031697;28;20041;-58
2023/09/03 00:46:08;;;;;;;10.48;8.13;;;11.80;99.90;;;;;;21043455;28;20028;-54
2023/09/03 00:56:11;;;;;;;12.63;8.82;;;11.60;99.90;;;;;;21048267;28;20036;-55
2023/09/03 01:06:12;;;;;;;10.45;7.80;;;11.40;99.90;;;;;;21033051;28;20047;-59
2023/09/03 01:16:23;;;;;;;15.73;9.50;;;11.40;99.90;;;;;;21033735;28;20040;-59
2023/09/03 01:26:31;;;;;;;15.73;9.48;;;11.50;99.90;;;;;;21051115;28;20028;-55
2023/09/03 01:36:34;;;;;;;16.23;11.10;;;11.50;99.90;;;;;;21027839;28;20346;-54
2023/09/03 01:46:50;;;;;;;15.45;10.98;;;11.40;99.90;;;;;;21047008;28;20036;-55
2023/09/03 01:57:05;;;;;;;16.02;11.25;;;11.30;99.90;;;;;;21048060;28;20028;-58
2023/09/03 02:07:07;;;;;;;12.35;9.98;;;11.30;99.90;;;;;;21020725;28;20109;-58
2023/09/03 02:17:09;;;;;;;12.93;8.50;;;11.30;99.90;;;;;;21050712;28;20025;-55
2023/09/03 02:27:11;;;;;;;9.30;5.82;;;11.20;99.90;;;;;;21036363;28;20028;-55
2023/09/03 02:37:12;;;;;;;7.97;5.75;;;11.40;99.90;;;;;;21045066;28;20408;-58
2023/09/03 02:47:14;;;;;;;7.10;3.97;;;11.50;99.90;;;;;;21048357;28;20020;-54
2023/09/03 02:57:16;;;;;;;2.67;1.83;;;11.40;99.90;;;;;;21043558;28;20028;-59
2023/09/03 03:07:18;;;;;;;2.78;1.40;;;12.20;99.90;;;;;;21032660;28;20049;-55
2023/09/03 03:17:20;;;;;;;2.97;2.13;;;12.20;99.90;;;;;;21046326;28;20035;-55
2023/09/03 03:27:23;;;;;;;5.28;3.95;;;11.80;99.90;;;;;;21028128;28;20032;-54
2023/09/03 03:37:25;;;;;;;4.88;3.50;;;11.50;99.90;;;;;;20997897;28;20633;-58
2023/09/03 03:47:28;;;;;;;5.72;2.22;;;11.40;99.90;;;;;;21005552;28;20047;-55
2023/09/03 03:57:30;;;;;;;7.07;2.70;;;11.40;99.90;;;;;;20993735;28;20090;-55
2023/09/03 04:07:31;;;;;;;2.33;2.13;;;11.50;99.90;;;;;;20975432;28;20097;-57
2023/09/03 04:17:33;;;;;;;4.55;2.55;;;11.60;99.90;;;;;;21008346;28;20036;-55
2023/09/03 04:27:35;;;;;;;5.20;4.03;;;11.60;99.90;;;;;;20989291;28;20055;-58
2023/09/03 04:37:38;;;;;;;6.30;4.00;;;11.80;99.90;;;;;;21008995;28;20089;-54
2023/09/03 04:47:39;;;;;;;8.90;6.03;;;12.20;99.90;;;;;;21031684;28;20025;-55
2023/09/03 04:57:42;;;;;;;14.50;10.75;;;12.40;99.90;;;;;;20999518;28;20381;-55
2023/09/03 05:07:46;;;;;;;23.17;14.38;;;12.30;99.90;;;;;;20993176;28;20489;-59
2023/09/03 05:17:49;;;;;;;14.82;9.20;;;12.30;99.90;;;;;;20997303;28;20058;-55
2023/09/03 05:27:51;;;;;;;9.90;7.97;;;12.60;99.90;;;;;;21008296;28;20073;-55
2023/09/03 05:37:53;;;;;;;12.65;7.65;;;13.30;99.90;;;;;;21018280;28;20038;-59
2023/09/03 05:47:55;;;;;;;14.95;8.43;;;13.50;99.90;;;;;;21002507;28;20094;-55
2023/09/03 05:57:58;;;;;;;14.75;10.43;;;13.70;99.90;;;;;;21017946;28;20036;-59
2023/09/03 06:08:01;;;;;;;6.47;5.72;;;13.60;99.90;;;;;;20927685;28;20673;-59
2023/09/03 06:18:03;;;;;;;8.00;5.88;;;13.70;99.90;;;;;;20916672;28;20397;-59
2023/09/03 06:28:05;;;;;;;8.38;5.10;;;14.20;99.90;;;;;;20936649;28;20044;-55
2023/09/03 06:38:07;;;;;;;6.32;4.10;;;14.70;99.90;;;;;;20921244;28;20128;-60
2023/09/03 06:48:09;;;;;;;5.25;2.92;;;15.60;99.90;;;;;;20920246;28;20396;-59
2023/09/03 06:58:12;;;;;;;3.42;2.80;;;16.90;99.90;;;;;;20925938;28;20416;-60
2023/09/03 07:08:14;;;;;;;3.30;2.65;;;17.80;99.90;;;;;;20971195;28;20451;-57
2023/09/03 07:18:17;;;;;;;4.65;3.40;;;18.50;99.90;;;;;;20995715;28;20032;-61
2023/09/03 07:28:19;;;;;;;5.18;3.63;;;19.50;99.90;;;;;;20988512;28;20465;-61
2023/09/03 07:38:25;;;;;;;7.35;3.80;;;20.80;99.90;;;;;;21006803;28;20032;-60
2023/09/03 07:48:27;;;;;;;7.95;3.97;;;21.00;99.90;;;;;;21004427;28;20070;-60
2023/09/03 07:58:30;;;;;;;4.55;2.50;;;20.30;99.90;;;;;;21005827;28;20168;-58
2023/09/03 08:08:34;;;;;;;5.57;3.70;;;20.60;99.90;;;;;;21011326;28;20044;-60
2023/09/03 08:18:37;;;;;;;6.35;3.30;;;22.00;99.90;;;;;;21011043;28;20533;-59
2023/09/03 08:28:44;;;;;;;4.15;3.17;;;22.80;99.90;;;;;;21010649;28;20028;-59
2023/09/03 08:38:48;;;;;;;7.82;2.60;;;22.90;99.90;;;;;;21007133;28;20024;-59
2023/09/03 08:48:51;;;;;;;3.20;2.38;;;23.20;99.90;;;;;;21009764;28;20068;-56
2023/09/03 08:58:56;;;;;;;2.50;2.00;;;22.80;99.70;;;;;;21009748;28;20036;-58
2023/09/03 09:09:01;;;;;;;2.42;2.00;;;22.70;99.20;;;;;;21028539;28;20074;-56
2023/09/03 09:19:03;;;;;;;4.63;2.20;;;23.00;98.20;;;;;;21004040;28;20481;-57
2023/09/03 09:29:08;;;;;;;3.55;1.73;;;23.00;98.00;;;;;;21028525;28;20062;-58
2023/09/03 09:39:11;;;;;;;2.40;2.05;;;23.10;96.50;;;;;;20979606;28;20056;-57
2023/09/03 09:49:18;;;;;;;2.42;1.92;;;23.30;96.70;;;;;;21006970;28;20036;-57
2023/09/03 09:59:27;;;;;;;2.13;1.70;;;23.80;96.20;;;;;;21002954;28;20062;-57
2023/09/03 10:09:30;;;;;;;2.45;1.40;;;23.70;95.50;;;;;;21002236;28;20443;-57
2023/09/03 10:19:59;;;;;;;2.05;1.35;;;24.20;94.50;;;;;;21009625;28;20077;-56
2023/09/03 10:30:10;;;;;;;3.30;1.42;;;25.10;90.80;;;;;;21004044;28;20044;-55
2023/09/03 10:40:32;;;;;;;3.10;1.70;;;25.10;89.90;;;;;;20998311;28;20059;-51
2023/09/03 10:50:50;;;;;;;3.58;2.72;;;25.20;94.20;;;;;;21004157;28;20031;-57
2023/09/03 11:01:21;;;;;;;5.07;3.22;;;25.80;98.10;;;;;;20990456;28;20049;-56
2023/09/03 11:11:30;;;;;;;2.80;2.33;;;25.80;97.00;;;;;;21009054;28;20408;-56
2023/09/03 11:21:38;;;;;;;3.30;3.00;;;25.70;95.00;;;;;;20985606;28;20042;-58
2023/09/03 11:31:48;;;;;;;1.88;1.42;;;26.00;96.50;;;;;;20982408;28;20469;-57
2023/09/03 11:41:54;;;;;;;3.08;2.75;;;25.50;93.30;;;;;;20987595;28;20036;-58
2023/09/03 11:52:19;;;;;;;2.97;2.60;;;25.90;97.80;;;;;;20968646;28;20115;-56
2023/09/03 12:02:25;;;;;;;2.83;1.80;;;26.10;97.70;;;;;;21006048;28;20536;-58
2023/09/03 12:12:30;;;;;;;2.53;2.10;;;26.80;90.00;;;;;;20967246;28;20090;-59
2023/09/03 12:22:37;;;;;;;3.50;2.80;;;25.60;91.40;;;;;;21002012;28;20169;-60
2023/09/03 12:32:42;;;;;;;3.20;2.90;;;25.30;97.60;;;;;;20989921;28;20085;-59
2023/09/03 12:42:49;;;;;;;4.85;3.60;;;26.40;98.80;;;;;;21008988;28;20044;-60
2023/09/03 12:53:05;;;;;;;3.70;3.40;;;27.00;98.50;;;;;;20977701;28;20045;-60
2023/09/03 13:03:13;;;;;;;5.03;3.95;;;27.00;98.70;;;;;;21012771;28;20490;-60
2023/09/03 13:13:27;;;;;;;4.75;4.05;;;26.60;98.70;;;;;;21015329;28;20072;-60
2023/09/03 13:23:54;;;;;;;5.68;4.20;;;26.60;99.30;;;;;;21008059;28;20389;-60
2023/09/03 13:34:03;;;;;;;6.20;4.25;;;26.90;99.90;;;;;;21001030;28;20151;-60
2023/09/03 13:44:08;;;;;;;4.35;3.95;;;27.30;99.30;;;;;;20996060;28;20067;-60
2023/09/03 13:54:12;;;;;;;6.30;4.13;;;26.90;98.60;;;;;;20976310;28;20098;-61
2023/09/03 14:04:20;;;;;;;5.17;3.93;;;27.00;99.20;;;;;;21015794;28;20043;-61
2023/09/03 14:14:24;;;;;;;5.47;3.65;;;26.60;99.30;;;;;;20999977;28;20359;-61
2023/09/03 14:24:26;;;;;;;5.32;3.80;;;26.00;99.70;;;;;;20992360;28;20027;-61
2023/09/03 14:34:38;;;;;;;4.05;3.60;;;26.00;99.90;;;;;;21004614;28;20091;-61
2023/09/03 14:44:44;;;;;;;4.30;3.83;;;25.90;99.50;;;;;;20923084;28;20045;-61
2023/09/03 14:54:49;;;;;;;4.60;3.90;;;25.50;99.90;;;;;;20902489;28;20531;-60
2023/09/03 15:04:53;;;;;;;4.78;4.10;;;25.10;99.90;;;;;;20905380;28;20114;-61
2023/09/03 15:14:55;;;;;;;6.65;4.50;;;24.80;99.90;;;;;;20919832;28;20058;-60
2023/09/03 15:24:56;;;;;;;6.93;5.15;;;24.30;99.90;;;;;;20928538;28;20063;-60
2023/09/03 15:34:58;;;;;;;5.28;4.78;;;23.80;99.90;;;;;;20927261;28;20087;-58
2023/09/03 15:45:00;;;;;;;6.40;5.45;;;23.40;99.90;;;;;;20928341;28;20082;-57
2023/09/03 15:55:02;;;;;;;10.52;5.63;;;23.10;99.90;;;;;;20929550;28;20496;-60
2023/09/03 16:05:04;;;;;;;9.25;5.50;;;22.90;99.90;;;;;;20947091;28;20045;-61
2023/09/03 16:15:18;;;;;;;6.82;5.28;;;22.50;99.90;;;;;;20944121;28;20397;-57
2023/09/03 16:25:26;;;;;;;7.70;6.40;;;22.20;99.90;;;;;;21007488;28;20373;-56
2023/09/03 16:35:32;;;;;;;6.50;5.88;;;21.80;99.90;;;;;;21007120;28;20036;-59
2023/09/03 16:45:42;;;;;;;6.90;6.15;;;21.50;99.90;;;;;;21036078;28;20037;-56
2023/09/03 16:55:45;;;;;;;8.07;7.10;;;21.10;99.90;;;;;;21049365;28;20032;-57
2023/09/03 17:05:54;;;;;;;11.00;7.75;;;20.60;99.90;;;;;;21027490;28;20056;-55
2023/09/03 17:16:00;;;;;;;8.70;7.80;;;20.00;99.90;;;;;;21045659;28;20405;-55
2023/09/03 17:26:07;;;;;;;3.70;2.88;;;19.30;99.90;;;;;;21033195;28;20486;-59
2023/09/03 17:36:11;;;;;;;4.53;3.70;;;18.60;99.90;;;;;;21024723;28;20032;-58
2023/09/03 17:46:20;;;;;;;5.35;3.78;;;18.00;99.90;;;;;;21015407;28;20025;-58
2023/09/03 17:56:27;;;;;;;4.07;2.95;;;17.30;99.90;;;;;;21050625;28;20044;-57
2023/09/03 18:06:31;;;;;;;4.68;2.65;;;16.60;99.90;;;;;;21032354;28;20048;-57
2023/09/03 18:16:35;;;;;;;5.85;3.15;;;16.20;99.90;;;;;;21051717;28;20036;-56
2023/09/03 18:26:39;;;;;;;4.93;4.32;;;15.90;99.90;;;;;;21046241;28;20042;-57
2023/09/03 18:36:44;;;;;;;2.55;2.00;;;15.60;99.90;;;;;;21044872;28;20028;-54
2023/09/03 18:46:51;;;;;;;3.97;2.40;;;15.40;99.90;;;;;;21047328;28;20044;-57
2023/09/03 18:57:00;;;;;;;2.60;1.90;;;15.30;99.90;;;;;;21044212;28;20536;-58
2023/09/03 19:07:03;;;;;;;4.35;2.35;;;15.10;99.90;;;;;;21036447;28;20047;-58
2023/09/03 19:17:10;;;;;;;3.00;2.47;;;15.10;99.90;;;;;;21015807;28;20109;-58
2023/09/03 19:27:14;;;;;;;2.25;1.88;;;15.10;99.90;;;;;;21026954;28;20481;-58
2023/09/03 19:37:21;;;;;;;3.13;1.70;;;15.00;99.90;;;;;;20959279;28;20052;-58
2023/09/03 19:47:25;;;;;;;4.05;1.65;;;15.00;99.90;;;;;;21001491;28;20065;-56
2023/09/03 19:57:32;;;;;;;2.13;1.63;;;15.00;99.90;;;;;;21024364;28;20362;-58
2023/09/03 20:07:36;;;;;;;1.88;1.60;;;14.90;99.90;;;;;;21036826;28;20053;-58
2023/09/03 20:17:42;;;;;;;1.98;1.50;;;15.00;99.90;;;;;;21054924;28;20044;-55
2023/09/03 20:27:48;;;;;;;3.78;1.70;;;15.10;99.90;;;;;;21059023;28;20370;-58
2023/09/03 20:37:52;;;;;;;2.20;1.77;;;15.20;99.90;;;;;;21023749;28;20036;-58
2023/09/03 20:47:56;;;;;;;2.58;1.88;;;15.00;99.90;;;;;;21049369;28;20036;-58
2023/09/03 20:58:00;;;;;;;3.50;1.67;;;15.00;99.90;;;;;;21048490;28;20110;-58
2023/09/03 21:08:06;;;;;;;2.78;1.80;;;14.90;99.90;;;;;;21037005;28;20093;-58
2023/09/03 21:18:09;;;;;;;2.88;1.80;;;15.10;99.90;;;;;;21048546;28;20052;-58
2023/09/03 21:28:13;;;;;;;3.25;1.73;;;15.10;99.90;;;;;;21049627;28;20366;-58
2023/09/03 21:38:18;;;;;;;3.13;1.60;;;15.10;99.90;;;;;;21055827;28;20036;-54
2023/09/03 21:48:23;;;;;;;3.25;2.17;;;15.10;99.90;;;;;;21045600;28;20044;-58
2023/09/03 21:58:26;;;;;;;3.60;1.75;;;15.00;99.90;;;;;;21041089;28;20097;-58
2023/09/03 22:08:32;;;;;;;4.00;1.95;;;15.00;99.90;;;;;;21039295;28;20044;-58
2023/09/03 22:18:35;;;;;;;2.50;1.88;;;15.00;99.90;;;;;;20993106;28;20118;-58
2023/09/03 22:28:37;;;;;;;3.00;1.98;;;15.10;99.90;;;;;;21050875;28;20032;-58
2023/09/03 22:38:39;;;;;;;3.25;2.28;;;15.10;99.90;;;;;;21041909;28;20032;-53
2023/09/03 22:48:41;;;;;;;2.85;2.38;;;14.90;99.90;;;;;;21026298;28;20493;-55
2023/09/03 22:58:44;;;;;;;3.05;1.92;;;15.10;99.90;;;;;;21044322;28;20389;-59
2023/09/03 23:08:46;;;;;;;2.75;2.10;;;15.20;99.90;;;;;;21038573;28;20040;-59
2023/09/03 23:18:48;;;;;;;4.32;2.40;;;15.30;99.90;;;;;;21032619;28;20036;-57
2023/09/03 23:28:50;;;;;;;2.88;2.15;;;14.80;99.90;;;;;;21027569;28;20028;-58
2023/09/03 23:38:52;;;;;;;3.38;2.17;;;14.80;99.90;;;;;;21042992;28;20469;-53
2023/09/03 23:48:58;;;;;;;2.70;2.10;;;14.90;99.90;;;;;;21040282;28;20023;-58
2023/09/03 23:59:00;;;;;;;3.20;1.92;;;14.50;99.90;;;;;;21041335;28;20477;-54
